sensor_id;sensor_type;location;lat;lon;timestamp;P1;durP1;ratioP1;P2;durP2;ratioP2
68633;SDS011;55625;47.072;22.192;2022-10-16T00:01:25;10.13;;;4.78;;
68633;SDS011;55625;47.072;22.192;2022-10-16T00:03:54;12.55;;;5.35;;
68633;SDS011;55625;47.072;22.192;2022-10-16T00:06:22;8.57;;;4.13;;
68633;SDS011;55625;47.072;22.192;2022-10-16T00:08:49;11.27;;;4.07;;
68633;SDS011;55625;47.072;22.192;2022-10-16T00:13:47;12.90;;;4.75;;
68633;SDS011;55625;47.072;22.192;2022-10-16T00:16:16;13.73;;;6.13;;
68633;SDS011;55625;47.072;22.192;2022-10-16T00:18:43;12.73;;;4.80;;
68633;SDS011;55625;47.072;22.192;2022-10-16T00:21:10;16.03;;;5.57;;
68633;SDS011;55625;47.072;22.192;2022-10-16T00:23:40;10.02;;;4.78;;
68633;SDS011;55625;47.072;22.192;2022-10-16T00:26:07;11.15;;;5.55;;
68633;SDS011;55625;47.072;22.192;2022-10-16T00:28:37;10.63;;;5.03;;
68633;SDS011;55625;47.072;22.192;2022-10-16T00:31:07;11.43;;;5.60;;
68633;SDS011;55625;47.072;22.192;2022-10-16T00:33:35;18.15;;;5.47;;
68633;SDS011;55625;47.072;22.192;2022-10-16T00:36:03;15.45;;;6.38;;
68633;SDS011;55625;47.072;22.192;2022-10-16T00:38:31;8.90;;;3.30;;
68633;SDS011;55625;47.072;22.192;2022-10-16T00:40:57;10.73;;;4.47;;
68633;SDS011;55625;47.072;22.192;2022-10-16T00:49:14;8.85;;;4.10;;
68633;SDS011;55625;47.072;22.192;2022-10-16T00:51:47;12.48;;;5.47;;
68633;SDS011;55625;47.072;22.192;2022-10-16T00:54:21;11.25;;;4.28;;
68633;SDS011;55625;47.072;22.192;2022-10-16T00:56:51;8.57;;;4.00;;
68633;SDS011;55625;47.072;22.192;2022-10-16T00:59:20;11.15;;;5.57;;
68633;SDS011;55625;47.072;22.192;2022-10-16T01:01:52;8.32;;;4.22;;
68633;SDS011;55625;47.072;22.192;2022-10-16T01:04:19;14.70;;;4.88;;
68633;SDS011;55625;47.072;22.192;2022-10-16T01:10:05;7.87;;;5.30;;
68633;SDS011;55625;47.072;22.192;2022-10-16T01:12:51;6.78;;;3.65;;
68633;SDS011;55625;47.072;22.192;2022-10-16T01:15:46;12.15;;;4.50;;
68633;SDS011;55625;47.072;22.192;2022-10-16T01:18:27;9.20;;;4.88;;
68633;SDS011;55625;47.072;22.192;2022-10-16T01:21:27;10.48;;;4.22;;
68633;SDS011;55625;47.072;22.192;2022-10-16T01:24:14;7.33;;;3.97;;
68633;SDS011;55625;47.072;22.192;2022-10-16T01:27:03;8.63;;;3.72;;
68633;SDS011;55625;47.072;22.192;2022-10-16T01:29:48;18.15;;;3.90;;
68633;SDS011;55625;47.072;22.192;2022-10-16T01:35:41;10.48;;;3.47;;
68633;SDS011;55625;47.072;22.192;2022-10-16T01:38:20;9.40;;;4.53;;
68633;SDS011;55625;47.072;22.192;2022-10-16T01:40:59;10.07;;;4.38;;
68633;SDS011;55625;47.072;22.192;2022-10-16T01:43:35;9.68;;;4.80;;
68633;SDS011;55625;47.072;22.192;2022-10-16T01:46:12;8.07;;;3.28;;
68633;SDS011;55625;47.072;22.192;2022-10-16T01:48:42;8.00;;;3.60;;
68633;SDS011;55625;47.072;22.192;2022-10-16T01:51:14;11.70;;;3.90;;
68633;SDS011;55625;47.072;22.192;2022-10-16T01:53:45;12.90;;;5.55;;
68633;SDS011;55625;47.072;22.192;2022-10-16T01:56:17;7.40;;;3.60;;
68633;SDS011;55625;47.072;22.192;2022-10-16T01:58:48;11.35;;;4.22;;
68633;SDS011;55625;47.072;22.192;2022-10-16T02:01:31;16.03;;;4.80;;
68633;SDS011;55625;47.072;22.192;2022-10-16T02:04:03;11.32;;;3.63;;
68633;SDS011;55625;47.072;22.192;2022-10-16T02:06:38;8.00;;;4.65;;
68633;SDS011;55625;47.072;22.192;2022-10-16T02:09:04;9.18;;;3.72;;
68633;SDS011;55625;47.072;22.192;2022-10-16T02:11:29;11.13;;;4.43;;
68633;SDS011;55625;47.072;22.192;2022-10-16T02:13:58;12.57;;;4.20;;
68633;SDS011;55625;47.072;22.192;2022-10-16T02:16:33;9.25;;;4.25;;
68633;SDS011;55625;47.072;22.192;2022-10-16T02:19:02;12.48;;;3.63;;
68633;SDS011;55625;47.072;22.192;2022-10-16T02:21:32;13.20;;;3.75;;
68633;SDS011;55625;47.072;22.192;2022-10-16T02:26:35;7.97;;;2.63;;
68633;SDS011;55625;47.072;22.192;2022-10-16T02:29:33;6.95;;;4.15;;
68633;SDS011;55625;47.072;22.192;2022-10-16T02:32:04;10.70;;;3.63;;
68633;SDS011;55625;47.072;22.192;2022-10-16T02:34:33;6.60;;;3.42;;
68633;SDS011;55625;47.072;22.192;2022-10-16T02:37:00;7.93;;;3.57;;
68633;SDS011;55625;47.072;22.192;2022-10-16T02:39:29;9.85;;;3.55;;
68633;SDS011;55625;47.072;22.192;2022-10-16T02:41:55;6.60;;;2.78;;
68633;SDS011;55625;47.072;22.192;2022-10-16T02:44:21;10.43;;;2.53;;
68633;SDS011;55625;47.072;22.192;2022-10-16T02:46:47;7.47;;;3.47;;
68633;SDS011;55625;47.072;22.192;2022-10-16T02:49:13;5.05;;;2.63;;
68633;SDS011;55625;47.072;22.192;2022-10-16T02:51:39;7.80;;;3.25;;
68633;SDS011;55625;47.072;22.192;2022-10-16T02:54:05;9.07;;;3.20;;
68633;SDS011;55625;47.072;22.192;2022-10-16T02:56:30;8.38;;;2.88;;
68633;SDS011;55625;47.072;22.192;2022-10-16T02:58:56;5.50;;;2.30;;
68633;SDS011;55625;47.072;22.192;2022-10-16T03:01:23;10.10;;;4.67;;
68633;SDS011;55625;47.072;22.192;2022-10-16T03:03:49;6.63;;;3.13;;
68633;SDS011;55625;47.072;22.192;2022-10-16T03:06:15;7.72;;;3.10;;
68633;SDS011;55625;47.072;22.192;2022-10-16T03:08:41;4.95;;;2.33;;
68633;SDS011;55625;47.072;22.192;2022-10-16T03:11:07;11.37;;;2.83;;
68633;SDS011;55625;47.072;22.192;2022-10-16T03:13:33;12.65;;;3.38;;
68633;SDS011;55625;47.072;22.192;2022-10-16T03:15:59;5.07;;;3.03;;
68633;SDS011;55625;47.072;22.192;2022-10-16T03:18:24;9.93;;;2.97;;
68633;SDS011;55625;47.072;22.192;2022-10-16T03:20:50;4.63;;;2.72;;
68633;SDS011;55625;47.072;22.192;2022-10-16T03:23:16;8.80;;;3.28;;
68633;SDS011;55625;47.072;22.192;2022-10-16T03:25:42;8.07;;;3.17;;
68633;SDS011;55625;47.072;22.192;2022-10-16T03:28:08;5.70;;;3.45;;
68633;SDS011;55625;47.072;22.192;2022-10-16T03:30:34;8.75;;;2.67;;
68633;SDS011;55625;47.072;22.192;2022-10-16T03:32:59;9.50;;;4.13;;
68633;SDS011;55625;47.072;22.192;2022-10-16T03:35:25;4.05;;;2.08;;
68633;SDS011;55625;47.072;22.192;2022-10-16T03:37:51;8.10;;;4.20;;
68633;SDS011;55625;47.072;22.192;2022-10-16T03:40:17;9.15;;;3.22;;
68633;SDS011;55625;47.072;22.192;2022-10-16T03:42:44;5.97;;;3.05;;
68633;SDS011;55625;47.072;22.192;2022-10-16T03:45:10;7.32;;;2.97;;
68633;SDS011;55625;47.072;22.192;2022-10-16T03:47:36;9.88;;;4.05;;
68633;SDS011;55625;47.072;22.192;2022-10-16T03:50:03;5.13;;;2.50;;
68633;SDS011;55625;47.072;22.192;2022-10-16T03:52:29;7.18;;;3.88;;
68633;SDS011;55625;47.072;22.192;2022-10-16T03:54:57;6.90;;;3.78;;
68633;SDS011;55625;47.072;22.192;2022-10-16T03:57:22;12.85;;;3.33;;
68633;SDS011;55625;47.072;22.192;2022-10-16T03:59:48;9.27;;;3.10;;
68633;SDS011;55625;47.072;22.192;2022-10-16T04:02:14;8.52;;;3.13;;
68633;SDS011;55625;47.072;22.192;2022-10-16T04:04:40;9.27;;;3.22;;
68633;SDS011;55625;47.072;22.192;2022-10-16T04:07:06;11.40;;;3.53;;
68633;SDS011;55625;47.072;22.192;2022-10-16T04:09:32;11.50;;;4.70;;
68633;SDS011;55625;47.072;22.192;2022-10-16T04:11:57;8.43;;;3.43;;
68633;SDS011;55625;47.072;22.192;2022-10-16T04:14:23;7.15;;;3.08;;
68633;SDS011;55625;47.072;22.192;2022-10-16T04:16:49;8.23;;;3.22;;
68633;SDS011;55625;47.072;22.192;2022-10-16T04:19:15;11.57;;;4.63;;
68633;SDS011;55625;47.072;22.192;2022-10-16T04:21:41;5.68;;;2.70;;
68633;SDS011;55625;47.072;22.192;2022-10-16T04:24:06;6.25;;;2.63;;
68633;SDS011;55625;47.072;22.192;2022-10-16T04:26:32;6.27;;;2.73;;
68633;SDS011;55625;47.072;22.192;2022-10-16T04:28:58;6.20;;;2.42;;
68633;SDS011;55625;47.072;22.192;2022-10-16T04:31:24;7.60;;;2.63;;
68633;SDS011;55625;47.072;22.192;2022-10-16T04:33:50;12.40;;;3.73;;
68633;SDS011;55625;47.072;22.192;2022-10-16T04:36:16;6.72;;;3.08;;
68633;SDS011;55625;47.072;22.192;2022-10-16T04:38:41;7.40;;;4.03;;
68633;SDS011;55625;47.072;22.192;2022-10-16T04:41:07;7.25;;;3.40;;
68633;SDS011;55625;47.072;22.192;2022-10-16T04:43:33;5.25;;;1.95;;
68633;SDS011;55625;47.072;22.192;2022-10-16T04:45:59;9.73;;;3.92;;
68633;SDS011;55625;47.072;22.192;2022-10-16T04:48:26;7.07;;;3.43;;
68633;SDS011;55625;47.072;22.192;2022-10-16T04:50:52;7.93;;;4.53;;
68633;SDS011;55625;47.072;22.192;2022-10-16T04:53:18;7.80;;;3.35;;
68633;SDS011;55625;47.072;22.192;2022-10-16T04:55:44;7.30;;;3.03;;
68633;SDS011;55625;47.072;22.192;2022-10-16T04:58:10;8.38;;;3.95;;
68633;SDS011;55625;47.072;22.192;2022-10-16T05:00:36;7.43;;;3.45;;
68633;SDS011;55625;47.072;22.192;2022-10-16T05:03:03;7.47;;;2.83;;
68633;SDS011;55625;47.072;22.192;2022-10-16T05:05:32;7.23;;;3.13;;
68633;SDS011;55625;47.072;22.192;2022-10-16T05:07:58;6.53;;;2.38;;
68633;SDS011;55625;47.072;22.192;2022-10-16T05:10:24;4.93;;;2.17;;
68633;SDS011;55625;47.072;22.192;2022-10-16T05:12:50;10.17;;;2.50;;
68633;SDS011;55625;47.072;22.192;2022-10-16T05:15:16;6.32;;;2.28;;
68633;SDS011;55625;47.072;22.192;2022-10-16T05:17:43;12.43;;;3.22;;
68633;SDS011;55625;47.072;22.192;2022-10-16T05:20:09;8.02;;;3.42;;
68633;SDS011;55625;47.072;22.192;2022-10-16T05:22:36;4.35;;;1.38;;
68633;SDS011;55625;47.072;22.192;2022-10-16T05:25:02;12.10;;;4.20;;
68633;SDS011;55625;47.072;22.192;2022-10-16T05:27:28;8.05;;;2.20;;
68633;SDS011;55625;47.072;22.192;2022-10-16T05:29:54;6.45;;;3.38;;
68633;SDS011;55625;47.072;22.192;2022-10-16T05:32:20;5.97;;;2.27;;
68633;SDS011;55625;47.072;22.192;2022-10-16T05:34:46;6.72;;;3.88;;
68633;SDS011;55625;47.072;22.192;2022-10-16T05:37:12;8.18;;;3.72;;
68633;SDS011;55625;47.072;22.192;2022-10-16T05:39:38;7.75;;;4.47;;
68633;SDS011;55625;47.072;22.192;2022-10-16T05:42:04;6.53;;;3.10;;
68633;SDS011;55625;47.072;22.192;2022-10-16T05:44:30;6.72;;;2.40;;
68633;SDS011;55625;47.072;22.192;2022-10-16T05:46:56;7.70;;;4.13;;
68633;SDS011;55625;47.072;22.192;2022-10-16T05:49:22;5.88;;;2.78;;
68633;SDS011;55625;47.072;22.192;2022-10-16T05:51:48;10.43;;;3.85;;
68633;SDS011;55625;47.072;22.192;2022-10-16T05:54:14;6.00;;;2.83;;
68633;SDS011;55625;47.072;22.192;2022-10-16T05:56:40;10.60;;;4.70;;
68633;SDS011;55625;47.072;22.192;2022-10-16T05:59:06;10.63;;;4.87;;
68633;SDS011;55625;47.072;22.192;2022-10-16T06:01:32;7.20;;;2.78;;
68633;SDS011;55625;47.072;22.192;2022-10-16T06:03:58;8.05;;;3.15;;
68633;SDS011;55625;47.072;22.192;2022-10-16T06:06:25;6.90;;;3.35;;
68633;SDS011;55625;47.072;22.192;2022-10-16T06:08:52;8.07;;;3.40;;
68633;SDS011;55625;47.072;22.192;2022-10-16T06:11:20;6.38;;;2.70;;
68633;SDS011;55625;47.072;22.192;2022-10-16T06:13:52;7.90;;;3.63;;
68633;SDS011;55625;47.072;22.192;2022-10-16T06:16:21;5.75;;;2.58;;
68633;SDS011;55625;47.072;22.192;2022-10-16T06:18:50;9.70;;;4.10;;
68633;SDS011;55625;47.072;22.192;2022-10-16T06:21:18;7.40;;;2.73;;
68633;SDS011;55625;47.072;22.192;2022-10-16T06:23:47;11.43;;;4.30;;
68633;SDS011;55625;47.072;22.192;2022-10-16T06:26:14;6.22;;;3.05;;
68633;SDS011;55625;47.072;22.192;2022-10-16T06:28:43;5.63;;;2.60;;
68633;SDS011;55625;47.072;22.192;2022-10-16T06:31:10;6.50;;;3.10;;
68633;SDS011;55625;47.072;22.192;2022-10-16T06:33:37;11.50;;;4.93;;
68633;SDS011;55625;47.072;22.192;2022-10-16T06:38:36;10.55;;;4.43;;
68633;SDS011;55625;47.072;22.192;2022-10-16T06:41:03;7.63;;;3.40;;
68633;SDS011;55625;47.072;22.192;2022-10-16T06:43:32;10.27;;;3.58;;
68633;SDS011;55625;47.072;22.192;2022-10-16T06:46:00;8.20;;;3.87;;
68633;SDS011;55625;47.072;22.192;2022-10-16T06:48:27;13.35;;;4.25;;
68633;SDS011;55625;47.072;22.192;2022-10-16T06:53:34;6.88;;;3.28;;
68633;SDS011;55625;47.072;22.192;2022-10-16T06:56:06;9.02;;;3.50;;
68633;SDS011;55625;47.072;22.192;2022-10-16T06:58:41;6.23;;;3.40;;
68633;SDS011;55625;47.072;22.192;2022-10-16T07:01:08;7.50;;;4.65;;
68633;SDS011;55625;47.072;22.192;2022-10-16T07:03:36;8.90;;;4.25;;
68633;SDS011;55625;47.072;22.192;2022-10-16T07:06:04;7.20;;;3.55;;
68633;SDS011;55625;47.072;22.192;2022-10-16T07:08:33;13.73;;;4.30;;
68633;SDS011;55625;47.072;22.192;2022-10-16T07:11:01;8.33;;;3.37;;
68633;SDS011;55625;47.072;22.192;2022-10-16T07:13:29;12.07;;;3.33;;
68633;SDS011;55625;47.072;22.192;2022-10-16T07:15:54;10.13;;;3.78;;
68633;SDS011;55625;47.072;22.192;2022-10-16T07:18:20;9.43;;;4.50;;
68633;SDS011;55625;47.072;22.192;2022-10-16T07:20:51;11.95;;;3.40;;
68633;SDS011;55625;47.072;22.192;2022-10-16T07:23:17;7.13;;;3.22;;
68633;SDS011;55625;47.072;22.192;2022-10-16T07:25:43;8.85;;;3.08;;
68633;SDS011;55625;47.072;22.192;2022-10-16T07:28:09;9.93;;;5.27;;
68633;SDS011;55625;47.072;22.192;2022-10-16T07:30:35;9.48;;;3.80;;
68633;SDS011;55625;47.072;22.192;2022-10-16T07:33:02;13.27;;;3.95;;
68633;SDS011;55625;47.072;22.192;2022-10-16T07:35:28;10.32;;;4.20;;
68633;SDS011;55625;47.072;22.192;2022-10-16T07:37:54;9.13;;;3.83;;
68633;SDS011;55625;47.072;22.192;2022-10-16T07:40:20;7.68;;;2.85;;
68633;SDS011;55625;47.072;22.192;2022-10-16T07:42:46;10.65;;;3.22;;
68633;SDS011;55625;47.072;22.192;2022-10-16T07:45:12;10.23;;;3.97;;
68633;SDS011;55625;47.072;22.192;2022-10-16T07:47:38;6.80;;;3.63;;
68633;SDS011;55625;47.072;22.192;2022-10-16T07:50:04;13.00;;;3.55;;
68633;SDS011;55625;47.072;22.192;2022-10-16T07:52:30;9.45;;;3.75;;
68633;SDS011;55625;47.072;22.192;2022-10-16T07:54:55;15.03;;;4.20;;
68633;SDS011;55625;47.072;22.192;2022-10-16T07:57:21;9.57;;;4.03;;
68633;SDS011;55625;47.072;22.192;2022-10-16T07:59:47;5.57;;;2.17;;
68633;SDS011;55625;47.072;22.192;2022-10-16T08:02:13;8.18;;;3.15;;
68633;SDS011;55625;47.072;22.192;2022-10-16T08:04:39;9.68;;;3.80;;
68633;SDS011;55625;47.072;22.192;2022-10-16T08:07:06;8.20;;;3.17;;
68633;SDS011;55625;47.072;22.192;2022-10-16T08:09:33;13.55;;;3.40;;
68633;SDS011;55625;47.072;22.192;2022-10-16T08:11:59;9.20;;;2.88;;
68633;SDS011;55625;47.072;22.192;2022-10-16T08:14:25;7.10;;;3.03;;
68633;SDS011;55625;47.072;22.192;2022-10-16T08:16:51;10.93;;;3.53;;
68633;SDS011;55625;47.072;22.192;2022-10-16T08:19:18;10.65;;;3.95;;
68633;SDS011;55625;47.072;22.192;2022-10-16T08:21:46;10.43;;;3.43;;
68633;SDS011;55625;47.072;22.192;2022-10-16T08:24:12;14.13;;;4.10;;
68633;SDS011;55625;47.072;22.192;2022-10-16T08:26:38;9.32;;;4.25;;
68633;SDS011;55625;47.072;22.192;2022-10-16T08:29:04;9.55;;;3.40;;
68633;SDS011;55625;47.072;22.192;2022-10-16T08:31:30;11.90;;;4.63;;
68633;SDS011;55625;47.072;22.192;2022-10-16T08:33:56;13.30;;;4.32;;
68633;SDS011;55625;47.072;22.192;2022-10-16T08:36:21;11.43;;;3.87;;
68633;SDS011;55625;47.072;22.192;2022-10-16T08:38:48;10.65;;;3.90;;
68633;SDS011;55625;47.072;22.192;2022-10-16T08:47:13;18.00;;;3.07;;
68633;SDS011;55625;47.072;22.192;2022-10-16T08:50:10;5.40;;;1.88;;
68633;SDS011;55625;47.072;22.192;2022-10-16T08:52:43;7.30;;;3.58;;
68633;SDS011;55625;47.072;22.192;2022-10-16T08:58:16;7.47;;;3.65;;
68633;SDS011;55625;47.072;22.192;2022-10-16T09:00:55;8.00;;;3.20;;
68633;SDS011;55625;47.072;22.192;2022-10-16T09:06:46;11.65;;;3.13;;
68633;SDS011;55625;47.072;22.192;2022-10-16T09:18:11;4.70;;;1.98;;
68633;SDS011;55625;47.072;22.192;2022-10-16T09:23:31;5.90;;;3.03;;
68633;SDS011;55625;47.072;22.192;2022-10-16T09:26:01;8.60;;;2.40;;
68633;SDS011;55625;47.072;22.192;2022-10-16T09:28:29;4.90;;;1.47;;
68633;SDS011;55625;47.072;22.192;2022-10-16T09:30:55;8.02;;;2.10;;
68633;SDS011;55625;47.072;22.192;2022-10-16T09:33:28;8.18;;;3.17;;
68633;SDS011;55625;47.072;22.192;2022-10-16T09:36:00;6.82;;;2.50;;
68633;SDS011;55625;47.072;22.192;2022-10-16T09:38:31;5.25;;;2.03;;
68633;SDS011;55625;47.072;22.192;2022-10-16T09:41:02;7.23;;;2.87;;
68633;SDS011;55625;47.072;22.192;2022-10-16T09:48:56;5.13;;;2.30;;
68633;SDS011;55625;47.072;22.192;2022-10-16T09:51:26;9.43;;;2.17;;
68633;SDS011;55625;47.072;22.192;2022-10-16T09:54:00;4.83;;;2.10;;
68633;SDS011;55625;47.072;22.192;2022-10-16T09:59:00;7.68;;;2.08;;
68633;SDS011;55625;47.072;22.192;2022-10-16T10:01:36;7.88;;;2.22;;
68633;SDS011;55625;47.072;22.192;2022-10-16T10:04:14;6.25;;;2.30;;
68633;SDS011;55625;47.072;22.192;2022-10-16T10:06:43;5.20;;;1.97;;
68633;SDS011;55625;47.072;22.192;2022-10-16T10:09:21;7.10;;;2.72;;
68633;SDS011;55625;47.072;22.192;2022-10-16T10:11:59;5.47;;;3.10;;
68633;SDS011;55625;47.072;22.192;2022-10-16T10:15:10;5.97;;;2.88;;
68633;SDS011;55625;47.072;22.192;2022-10-16T10:19:54;4.37;;;1.70;;
68633;SDS011;55625;47.072;22.192;2022-10-16T10:22:43;7.47;;;2.88;;
68633;SDS011;55625;47.072;22.192;2022-10-16T10:30:47;8.00;;;2.07;;
68633;SDS011;55625;47.072;22.192;2022-10-16T10:36:16;4.78;;;2.35;;
68633;SDS011;55625;47.072;22.192;2022-10-16T10:38:58;5.75;;;1.77;;
68633;SDS011;55625;47.072;22.192;2022-10-16T10:56:16;5.82;;;1.58;;
68633;SDS011;55625;47.072;22.192;2022-10-16T10:59:24;4.83;;;2.03;;
68633;SDS011;55625;47.072;22.192;2022-10-16T11:02:26;4.40;;;1.40;;
68633;SDS011;55625;47.072;22.192;2022-10-16T11:05:11;6.53;;;2.72;;
68633;SDS011;55625;47.072;22.192;2022-10-16T11:07:54;6.38;;;2.42;;
68633;SDS011;55625;47.072;22.192;2022-10-16T11:10:30;6.22;;;3.22;;
68633;SDS011;55625;47.072;22.192;2022-10-16T11:15:57;5.22;;;2.40;;
68633;SDS011;55625;47.072;22.192;2022-10-16T11:18:37;4.57;;;2.28;;
68633;SDS011;55625;47.072;22.192;2022-10-16T11:21:29;6.63;;;1.83;;
68633;SDS011;55625;47.072;22.192;2022-10-16T11:24:09;4.38;;;2.17;;
68633;SDS011;55625;47.072;22.192;2022-10-16T11:26:52;5.30;;;2.70;;
68633;SDS011;55625;47.072;22.192;2022-10-16T11:29:25;6.15;;;2.70;;
68633;SDS011;55625;47.072;22.192;2022-10-16T11:32:00;7.38;;;2.25;;
68633;SDS011;55625;47.072;22.192;2022-10-16T11:34:50;5.40;;;2.80;;
68633;SDS011;55625;47.072;22.192;2022-10-16T11:37:27;5.63;;;2.95;;
68633;SDS011;55625;47.072;22.192;2022-10-16T11:40:44;6.90;;;2.70;;
68633;SDS011;55625;47.072;22.192;2022-10-16T11:43:02;6.18;;;1.75;;
68633;SDS011;55625;47.072;22.192;2022-10-16T11:45:52;7.72;;;2.28;;
68633;SDS011;55625;47.072;22.192;2022-10-16T11:57:15;5.28;;;2.53;;
68633;SDS011;55625;47.072;22.192;2022-10-16T11:59:59;5.55;;;2.47;;
68633;SDS011;55625;47.072;22.192;2022-10-16T12:08:13;5.97;;;2.33;;
68633;SDS011;55625;47.072;22.192;2022-10-16T12:10:42;4.32;;;1.88;;
68633;SDS011;55625;47.072;22.192;2022-10-16T12:13:30;4.38;;;1.90;;
68633;SDS011;55625;47.072;22.192;2022-10-16T12:18:39;6.35;;;2.50;;
68633;SDS011;55625;47.072;22.192;2022-10-16T12:21:07;7.00;;;3.20;;
68633;SDS011;55625;47.072;22.192;2022-10-16T12:23:38;5.63;;;2.70;;
68633;SDS011;55625;47.072;22.192;2022-10-16T12:26:14;5.15;;;1.88;;
68633;SDS011;55625;47.072;22.192;2022-10-16T12:29:13;6.30;;;3.00;;
68633;SDS011;55625;47.072;22.192;2022-10-16T12:31:57;7.57;;;2.22;;
68633;SDS011;55625;47.072;22.192;2022-10-16T12:37:31;4.60;;;2.17;;
68633;SDS011;55625;47.072;22.192;2022-10-16T12:40:11;5.60;;;2.53;;
68633;SDS011;55625;47.072;22.192;2022-10-16T12:43:10;5.85;;;1.85;;
68633;SDS011;55625;47.072;22.192;2022-10-16T12:45:46;6.10;;;2.90;;
68633;SDS011;55625;47.072;22.192;2022-10-16T12:48:21;6.63;;;2.80;;
68633;SDS011;55625;47.072;22.192;2022-10-16T12:50:47;6.35;;;3.38;;
68633;SDS011;55625;47.072;22.192;2022-10-16T12:56:05;5.82;;;2.38;;
68633;SDS011;55625;47.072;22.192;2022-10-16T12:59:01;4.00;;;2.10;;
68633;SDS011;55625;47.072;22.192;2022-10-16T13:04:29;6.85;;;2.60;;
68633;SDS011;55625;47.072;22.192;2022-10-16T13:10:20;10.05;;;3.55;;
68633;SDS011;55625;47.072;22.192;2022-10-16T13:24:49;5.97;;;2.28;;
68633;SDS011;55625;47.072;22.192;2022-10-16T13:30:23;7.20;;;3.60;;
68633;SDS011;55625;47.072;22.192;2022-10-16T13:35:53;6.07;;;2.88;;
68633;SDS011;55625;47.072;22.192;2022-10-16T13:38:22;6.35;;;3.05;;
68633;SDS011;55625;47.072;22.192;2022-10-16T13:41:05;6.60;;;3.72;;
68633;SDS011;55625;47.072;22.192;2022-10-16T13:43:49;7.40;;;2.70;;
68633;SDS011;55625;47.072;22.192;2022-10-16T13:46:19;6.25;;;2.97;;
68633;SDS011;55625;47.072;22.192;2022-10-16T13:48:57;6.68;;;2.50;;
68633;SDS011;55625;47.072;22.192;2022-10-16T13:51:25;8.70;;;3.42;;
68633;SDS011;55625;47.072;22.192;2022-10-16T13:53:52;9.13;;;3.88;;
68633;SDS011;55625;47.072;22.192;2022-10-16T13:56:20;6.90;;;2.27;;
68633;SDS011;55625;47.072;22.192;2022-10-16T13:58:58;9.25;;;3.17;;
68633;SDS011;55625;47.072;22.192;2022-10-16T14:01:40;8.13;;;3.47;;
68633;SDS011;55625;47.072;22.192;2022-10-16T14:04:10;7.85;;;3.33;;
68633;SDS011;55625;47.072;22.192;2022-10-16T14:06:42;6.95;;;2.80;;
68633;SDS011;55625;47.072;22.192;2022-10-16T14:11:55;8.05;;;2.97;;
68633;SDS011;55625;47.072;22.192;2022-10-16T14:14:43;8.15;;;3.33;;
68633;SDS011;55625;47.072;22.192;2022-10-16T14:17:18;7.38;;;2.97;;
68633;SDS011;55625;47.072;22.192;2022-10-16T14:19:51;9.23;;;3.70;;
68633;SDS011;55625;47.072;22.192;2022-10-16T14:27:59;6.47;;;2.45;;
68633;SDS011;55625;47.072;22.192;2022-10-16T14:30:30;8.35;;;2.28;;
68633;SDS011;55625;47.072;22.192;2022-10-16T14:33:18;12.13;;;3.45;;
68633;SDS011;55625;47.072;22.192;2022-10-16T14:38:24;8.18;;;3.30;;
68633;SDS011;55625;47.072;22.192;2022-10-16T14:40:50;8.82;;;3.35;;
68633;SDS011;55625;47.072;22.192;2022-10-16T14:43:23;6.57;;;2.40;;
68633;SDS011;55625;47.072;22.192;2022-10-16T14:45:58;13.77;;;4.20;;
68633;SDS011;55625;47.072;22.192;2022-10-16T14:48:24;12.25;;;3.10;;
68633;SDS011;55625;47.072;22.192;2022-10-16T14:50:50;9.30;;;3.08;;
68633;SDS011;55625;47.072;22.192;2022-10-16T14:53:16;7.68;;;3.30;;
68633;SDS011;55625;47.072;22.192;2022-10-16T14:55:43;7.28;;;3.22;;
68633;SDS011;55625;47.072;22.192;2022-10-16T15:00:45;10.40;;;3.30;;
68633;SDS011;55625;47.072;22.192;2022-10-16T15:03:11;8.15;;;3.30;;
68633;SDS011;55625;47.072;22.192;2022-10-16T15:05:38;11.95;;;4.43;;
68633;SDS011;55625;47.072;22.192;2022-10-16T15:08:04;12.77;;;5.30;;
68633;SDS011;55625;47.072;22.192;2022-10-16T15:10:29;13.80;;;5.23;;
68633;SDS011;55625;47.072;22.192;2022-10-16T15:12:58;18.35;;;6.13;;
68633;SDS011;55625;47.072;22.192;2022-10-16T15:18:03;11.90;;;5.90;;
68633;SDS011;55625;47.072;22.192;2022-10-16T15:20:31;16.00;;;5.75;;
68633;SDS011;55625;47.072;22.192;2022-10-16T15:23:33;15.43;;;6.50;;
68633;SDS011;55625;47.072;22.192;2022-10-16T15:25:53;13.63;;;4.85;;
68633;SDS011;55625;47.072;22.192;2022-10-16T15:28:21;17.15;;;6.15;;
68633;SDS011;55625;47.072;22.192;2022-10-16T15:30:49;16.98;;;7.43;;
68633;SDS011;55625;47.072;22.192;2022-10-16T15:33:19;19.73;;;7.57;;
68633;SDS011;55625;47.072;22.192;2022-10-16T15:35:51;13.10;;;5.83;;
68633;SDS011;55625;47.072;22.192;2022-10-16T15:38:18;17.38;;;6.15;;
68633;SDS011;55625;47.072;22.192;2022-10-16T15:40:46;15.38;;;5.85;;
68633;SDS011;55625;47.072;22.192;2022-10-16T15:43:13;32.75;;;10.93;;
68633;SDS011;55625;47.072;22.192;2022-10-16T15:45:39;39.28;;;12.82;;
68633;SDS011;55625;47.072;22.192;2022-10-16T15:48:05;67.60;;;19.47;;
68633;SDS011;55625;47.072;22.192;2022-10-16T15:50:38;117.22;;;29.70;;
68633;SDS011;55625;47.072;22.192;2022-10-16T15:53:04;181.73;;;43.63;;
68633;SDS011;55625;47.072;22.192;2022-10-16T15:55:30;204.65;;;47.53;;
68633;SDS011;55625;47.072;22.192;2022-10-16T15:58:02;182.10;;;48.10;;
68633;SDS011;55625;47.072;22.192;2022-10-16T16:00:29;135.27;;;37.47;;
68633;SDS011;55625;47.072;22.192;2022-10-16T16:02:55;82.18;;;22.33;;
68633;SDS011;55625;47.072;22.192;2022-10-16T16:05:21;75.93;;;23.60;;
68633;SDS011;55625;47.072;22.192;2022-10-16T16:07:48;53.50;;;18.17;;
68633;SDS011;55625;47.072;22.192;2022-10-16T16:10:15;57.70;;;19.27;;
68633;SDS011;55625;47.072;22.192;2022-10-16T16:12:42;50.63;;;13.30;;
68633;SDS011;55625;47.072;22.192;2022-10-16T16:15:08;35.53;;;13.85;;
68633;SDS011;55625;47.072;22.192;2022-10-16T16:17:35;35.35;;;13.18;;
68633;SDS011;55625;47.072;22.192;2022-10-16T16:20:02;29.63;;;10.67;;
68633;SDS011;55625;47.072;22.192;2022-10-16T16:22:29;32.47;;;12.00;;
68633;SDS011;55625;47.072;22.192;2022-10-16T16:24:55;30.40;;;10.35;;
68633;SDS011;55625;47.072;22.192;2022-10-16T16:27:21;21.03;;;9.73;;
68633;SDS011;55625;47.072;22.192;2022-10-16T16:29:49;27.00;;;10.20;;
68633;SDS011;55625;47.072;22.192;2022-10-16T16:32:15;20.23;;;10.05;;
68633;SDS011;55625;47.072;22.192;2022-10-16T16:34:41;23.67;;;8.05;;
68633;SDS011;55625;47.072;22.192;2022-10-16T16:37:07;23.60;;;8.90;;
68633;SDS011;55625;47.072;22.192;2022-10-16T16:39:33;35.67;;;14.95;;
68633;SDS011;55625;47.072;22.192;2022-10-16T16:41:59;30.73;;;11.88;;
68633;SDS011;55625;47.072;22.192;2022-10-16T16:44:26;22.58;;;11.88;;
68633;SDS011;55625;47.072;22.192;2022-10-16T16:46:53;18.53;;;10.17;;
68633;SDS011;55625;47.072;22.192;2022-10-16T16:49:20;18.60;;;9.15;;
68633;SDS011;55625;47.072;22.192;2022-10-16T16:51:46;16.58;;;8.73;;
68633;SDS011;55625;47.072;22.192;2022-10-16T16:54:12;18.00;;;7.38;;
68633;SDS011;55625;47.072;22.192;2022-10-16T16:56:38;20.90;;;9.00;;
68633;SDS011;55625;47.072;22.192;2022-10-16T16:59:10;17.77;;;8.23;;
68633;SDS011;55625;47.072;22.192;2022-10-16T17:01:39;21.25;;;10.35;;
68633;SDS011;55625;47.072;22.192;2022-10-16T17:04:05;20.10;;;8.05;;
68633;SDS011;55625;47.072;22.192;2022-10-16T17:06:32;19.58;;;9.05;;
68633;SDS011;55625;47.072;22.192;2022-10-16T17:08:58;29.23;;;10.50;;
68633;SDS011;55625;47.072;22.192;2022-10-16T17:11:27;33.00;;;12.55;;
68633;SDS011;55625;47.072;22.192;2022-10-16T17:13:54;41.08;;;15.00;;